Anniston, Alabama
Current Conditions -  °F | °C
As of 11:53 PM on Friday 31 Oct 2014 (Local Time) from KANB Reporting Station
Clear Clear  
Wind Chill: 33°   Ceiling: Unl
Heat Index: 40°   Visibility: 10mi
Dew Point: 25°   Wind: 10mph
Humidity: 55%   Direction: 300°WNW
Pressure: 30.11"   Gusts: NA
Location:  33.66°N, 85.82°W
Report Text: KANB 010453Z AUTO 30009KT 10SM CLR 04/M04 A3011 RMK AO2 SLP200 T00441039 $
Loading
Personal Weather Stations






























Interactive Weather Map
Tropical Storm Tracking
New forecast layout! Learn more

10-Day Weather Forecast

Advertisements
Track Severe Weather on mobile